Time;durP1;ratioP1;P1;durP2;ratioP2;P2;SDS_P1;SDS_P2;PMS_P1;PMS_P2;Temp;Humidity;BMP_temperature;BMP_pressure;BME280_temperature;BME280_humidity;BME280_pressure;Samples;Min_cycle;Max_cycle;Signal;HPM_P1;HPM_P2
2023/06/10 00:04:30;;;;;;;4.32;1.60;;;;;;;18.78;100.00;98201.75;15272581;19;20014;-46
2023/06/10 00:09:55;;;;;;;2.25;1.50;;;;;;;18.71;100.00;98206.44;15277621;19;20020;-45
2023/06/10 00:15:20;;;;;;;3.97;1.80;;;;;;;18.67;100.00;98202.47;15278387;19;20033;-45
2023/06/10 00:20:48;;;;;;;4.95;1.70;;;;;;;18.60;100.00;98209.88;15278742;19;20012;-46
2023/06/10 00:26:14;;;;;;;2.47;1.63;;;;;;;18.48;100.00;98213.28;15274935;19;20014;-46
2023/06/10 00:31:38;;;;;;;3.25;1.80;;;;;;;18.38;100.00;98210.19;15276221;19;20017;-46
2023/06/10 00:37:06;;;;;;;4.18;1.90;;;;;;;18.25;100.00;98202.88;15268395;19;20022;-39
2023/06/10 00:42:30;;;;;;;5.07;1.90;;;;;;;18.16;100.00;98205.06;15274919;19;20025;-39
2023/06/10 00:47:55;;;;;;;2.28;1.60;;;;;;;18.07;100.00;98211.78;15274154;19;20010;-39
2023/06/10 00:53:22;;;;;;;5.03;1.83;;;;;;;18.02;100.00;98225.22;15273263;19;20362;-39
2023/06/10 00:58:48;;;;;;;5.50;1.75;;;;;;;17.90;100.00;98208.66;15275140;19;20414;-39
2023/06/10 01:04:14;;;;;;;2.85;1.70;;;;;;;17.79;100.00;98218.34;15282245;19;20010;-39
2023/06/10 01:09:49;;;;;;;3.58;1.70;;;;;;;17.57;100.00;98212.28;15284334;19;20025;-39
2023/06/10 01:15:15;;;;;;;4.43;1.70;;;;;;;17.50;100.00;98230.53;15281482;19;20010;-39
2023/06/10 01:20:42;;;;;;;2.58;1.58;;;;;;;17.35;100.00;98220.69;15290555;19;20014;-39
2023/06/10 01:26:15;;;;;;;2.80;1.55;;;;;;;17.18;100.00;98225.72;15284211;19;20014;-38
2023/06/10 01:31:45;;;;;;;4.13;1.70;;;;;;;17.03;100.00;98217.75;15289539;19;20019;-39
2023/06/10 01:37:12;;;;;;;3.30;1.77;;;;;;;16.76;100.00;98222.28;15283834;19;20097;-39
2023/06/10 01:42:41;;;;;;;4.05;1.67;;;;;;;16.64;100.00;98231.03;15284852;19;20014;-39
2023/06/10 01:48:05;;;;;;;4.63;1.40;;;;;;;16.47;100.00;98241.44;15283336;19;20022;-42
2023/06/10 01:53:30;;;;;;;3.25;1.80;;;;;;;16.41;100.00;98236.84;15288823;19;20033;-38
2023/06/10 01:58:59;;;;;;;3.45;1.60;;;;;;;16.37;100.00;98240.19;15286161;19;20039;-39
2023/06/10 02:04:24;;;;;;;4.88;1.70;;;;;;;16.30;100.00;98249.13;15285684;19;20035;-39
2023/06/10 02:09:48;;;;;;;3.78;1.50;;;;;;;16.22;100.00;98249.31;15284575;19;20722;-38
2023/06/10 02:15:16;;;;;;;4.75;1.60;;;;;;;16.06;100.00;98242.34;15275357;19;20435;-38
2023/06/10 02:20:40;;;;;;;3.45;1.70;;;;;;;15.96;100.00;98245.41;15281357;19;20049;-38
2023/06/10 02:26:06;;;;;;;4.35;1.70;;;;;;;15.89;100.00;98247.25;15284690;19;20664;-39
2023/06/10 02:31:35;;;;;;;3.97;1.70;;;;;;;15.80;100.00;98256.59;15286305;19;20597;-41
2023/06/10 02:37:00;;;;;;;5.28;1.80;;;;;;;15.72;100.00;98266.53;15279375;19;20081;-38
2023/06/10 02:42:26;;;;;;;2.70;1.50;;;;;;;15.61;100.00;98267.09;15286305;19;20015;-38
2023/06/10 02:47:54;;;;;;;4.22;1.70;;;;;;;15.52;100.00;98269.09;15276621;19;20033;-38
2023/06/10 02:53:20;;;;;;;4.70;1.83;;;;;;;15.38;100.00;98270.88;15278708;19;20022;-38
2023/06/10 02:58:51;;;;;;;4.40;1.90;;;;;;;15.18;100.00;98273.41;15281602;19;20010;-38
2023/06/10 03:04:20;;;;;;;3.85;1.80;;;;;;;15.04;100.00;98285.22;15284617;19;20021;-39
2023/06/10 03:09:51;;;;;;;3.92;1.77;;;;;;;14.97;100.00;98285.13;15281022;19;20015;-39
2023/06/10 03:15:20;;;;;;;3.50;1.70;;;;;;;14.89;100.00;98293.38;15278687;19;20014;-38
2023/06/10 03:20:51;;;;;;;4.22;2.00;;;;;;;14.74;100.00;98290.72;15279416;19;20360;-39
2023/06/10 03:26:16;;;;;;;3.50;1.90;;;;;;;14.72;100.00;98288.22;15271941;19;20797;-39
2023/06/10 03:31:43;;;;;;;3.38;1.80;;;;;;;14.74;100.00;98307.84;15281596;19;20018;-39
2023/06/10 03:37:11;;;;;;;3.83;1.80;;;;;;;14.76;100.00;98315.78;15275999;19;20014;-39
2023/06/10 03:42:36;;;;;;;3.53;1.88;;;;;;;14.75;100.00;98309.53;15281324;19;20011;-39
2023/06/10 03:48:04;;;;;;;3.58;1.95;;;;;;;14.77;100.00;98318.28;15273528;19;20039;-42
2023/06/10 03:53:35;;;;;;;3.60;1.93;;;;;;;14.73;100.00;98322.44;15278053;19;20030;-40
2023/06/10 03:59:00;;;;;;;3.17;1.95;;;;;;;14.69;100.00;98315.69;15274274;19;20475;-40
2023/06/10 04:04:25;;;;;;;4.60;2.00;;;;;;;14.64;100.00;98328.97;15278934;19;20086;-39
2023/06/10 04:09:53;;;;;;;4.80;2.00;;;;;;;14.63;100.00;98338.13;15278164;19;20002;-39
2023/06/10 04:15:18;;;;;;;4.05;2.10;;;;;;;14.66;100.00;98342.31;15277501;19;20015;-44
2023/06/10 04:20:44;;;;;;;4.55;2.10;;;;;;;14.74;100.00;98356.66;15271460;19;20027;-39
2023/06/10 04:26:12;;;;;;;4.90;1.90;;;;;;;14.78;100.00;98357.94;15275556;19;20074;-39
2023/06/10 04:31:37;;;;;;;4.75;1.90;;;;;;;14.83;100.00;98351.94;15271686;19;20074;-39
2023/06/10 04:37:02;;;;;;;3.80;1.85;;;;;;;14.89;100.00;98348.47;15275220;19;20018;-38
2023/06/10 04:42:31;;;;;;;4.75;2.13;;;;;;;15.02;100.00;98345.06;15294203;19;20010;-38
2023/06/10 04:47:57;;;;;;;4.15;2.10;;;;;;;15.08;100.00;98351.59;15292555;19;20021;-40
2023/06/10 04:53:23;;;;;;;6.05;2.38;;;;;;;15.12;100.00;98349.34;15284785;19;20021;-40
2023/06/10 04:58:50;;;;;;;4.07;2.10;;;;;;;15.19;100.00;98358.41;15292206;19;20010;-38
2023/06/10 05:04:15;;;;;;;4.53;2.00;;;;;;;15.30;100.00;98351.59;15286892;19;20014;-38
2023/06/10 05:09:39;;;;;;;4.78;2.08;;;;;;;15.40;100.00;98363.84;15292394;19;20034;-38
2023/06/10 05:15:08;;;;;;;4.88;1.95;;;;;;;15.53;100.00;98365.00;15289272;19;20024;-38
2023/06/10 05:20:32;;;;;;;5.32;2.10;;;;;;;15.63;100.00;98354.63;15288818;19;20105;-39
2023/06/10 05:25:58;;;;;;;6.07;2.10;;;;;;;15.75;100.00;98364.97;15280369;19;20042;-39
2023/06/10 05:31:25;;;;;;;3.97;2.13;;;;;;;15.79;100.00;98364.38;15290566;19;20014;-39
2023/06/10 05:36:51;;;;;;;3.60;2.13;;;;;;;15.89;100.00;98363.22;15276720;19;20014;-39
2023/06/10 05:42:16;;;;;;;4.25;1.75;;;;;;;15.93;100.00;98365.38;15288201;19;20021;-39
2023/06/10 05:47:44;;;;;;;5.13;2.45;;;;;;;15.99;100.00;98374.63;15282796;19;20471;-38
2023/06/10 05:53:14;;;;;;;4.20;2.03;;;;;;;16.09;100.00;98377.81;15286667;19;20010;-39
2023/06/10 05:58:39;;;;;;;5.10;2.20;;;;;;;16.29;100.00;98368.94;15279656;19;20530;-39
2023/06/10 06:04:06;;;;;;;4.05;2.08;;;;;;;16.44;100.00;98371.53;15280753;19;20493;-39
2023/06/10 06:09:31;;;;;;;3.80;2.15;;;;;;;16.56;100.00;98375.38;15281413;19;20021;-40
2023/06/10 06:14:55;;;;;;;4.90;2.00;;;;;;;16.66;100.00;98380.44;15283463;19;20050;-39
2023/06/10 06:20:23;;;;;;;5.65;2.50;;;;;;;16.61;100.00;98386.50;15285850;19;20014;-39
2023/06/10 06:25:47;;;;;;;4.50;2.40;;;;;;;16.59;100.00;98393.16;15282809;19;20081;-38
2023/06/10 06:31:12;;;;;;;5.57;2.58;;;;;;;16.47;100.00;98392.91;15277954;19;20098;-38
2023/06/10 06:36:39;;;;;;;6.97;2.63;;;;;;;16.52;100.00;98395.88;15280171;19;20010;-38
2023/06/10 06:42:06;;;;;;;4.75;2.20;;;;;;;16.66;100.00;98401.34;15277191;19;20014;-39
2023/06/10 06:47:44;;;;;;;4.82;2.40;;;;;;;16.67;100.00;98387.56;15275877;19;20036;-38
2023/06/10 06:53:14;;;;;;;4.38;2.50;;;;;;;16.83;100.00;98388.25;15285467;19;20016;-40
2023/06/10 06:58:38;;;;;;;6.55;2.75;;;;;;;16.93;100.00;98397.72;15282558;19;20003;-40
2023/06/10 07:04:04;;;;;;;4.45;3.00;;;;;;;16.83;100.00;98397.28;15273980;19;20347;-40
2023/06/10 07:09:31;;;;;;;5.70;3.10;;;;;;;16.85;100.00;98400.63;15276569;19;20006;-40
2023/06/10 07:14:57;;;;;;;5.47;2.95;;;;;;;16.96;100.00;98409.28;15278988;19;21086;-41
2023/06/10 07:20:21;;;;;;;5.82;2.92;;;;;;;17.10;100.00;98409.13;15282094;19;20022;-39
2023/06/10 07:25:49;;;;;;;4.53;2.60;;;;;;;17.34;100.00;98406.06;15279965;19;20631;-40
2023/06/10 07:31:13;;;;;;;3.78;2.50;;;;;;;17.54;100.00;98404.22;15281872;19;20017;-40
2023/06/10 07:36:45;;;;;;;7.80;2.55;;;;;;;17.81;100.00;98409.72;15272279;19;20010;-42
2023/06/10 07:42:14;;;;;;;5.25;2.80;;;;;;;18.04;100.00;98405.78;15272988;19;20067;-43
2023/06/10 07:47:40;;;;;;;5.28;2.67;;;;;;;18.21;100.00;98413.50;15277480;19;20082;-42
2023/06/10 07:53:06;;;;;;;5.03;2.47;;;;;;;18.35;100.00;98408.84;15274292;19;20022;-42
2023/06/10 07:58:33;;;;;;;4.95;2.60;;;;;;;18.43;100.00;98404.03;15277097;19;20014;-42
2023/06/10 08:03:58;;;;;;;4.30;2.63;;;;;;;18.46;100.00;98408.25;15279376;19;20015;-42
2023/06/10 08:09:23;;;;;;;5.22;2.50;;;;;;;18.68;100.00;98397.06;15272011;19;20015;-41
2023/06/10 08:14:51;;;;;;;5.07;2.40;;;;;;;18.89;100.00;98404.97;15284373;19;20018;-45
2023/06/10 08:20:17;;;;;;;6.78;2.90;;;;;;;19.05;100.00;98402.84;15294594;19;20479;-43
2023/06/10 08:25:42;;;;;;;3.88;2.40;;;;;;;19.20;100.00;98402.53;15286341;19;20014;-45
2023/06/10 08:31:09;;;;;;;4.82;2.33;;;;;;;19.40;100.00;98411.47;15292575;19;20046;-41
2023/06/10 08:36:40;;;;;;;5.25;2.60;;;;;;;19.54;100.00;98406.75;15285785;19;20015;-40
2023/06/10 08:42:17;;;;;;;4.13;2.40;;;;;;;19.67;100.00;98415.91;15276670;19;20019;-40
2023/06/10 08:47:47;;;;;;;5.32;2.42;;;;;;;19.83;100.00;98420.00;15287083;19;20499;-41
2023/06/10 08:53:19;;;;;;;4.85;2.58;;;;;;;19.90;100.00;98398.97;15291073;19;20015;-41
2023/06/10 08:58:45;;;;;;;4.15;2.50;;;;;;;20.05;100.00;98403.28;15292276;19;20018;-43
2023/06/10 09:04:13;;;;;;;6.13;2.28;;;;;;;20.26;100.00;98396.53;15290615;19;20538;-43
2023/06/10 09:09:38;;;;;;;3.50;2.20;;;;;;;20.45;100.00;98402.88;15289123;19;20011;-46
2023/06/10 09:15:03;;;;;;;3.95;2.20;;;;;;;20.58;100.00;98399.19;15280170;19;20014;-44
2023/06/10 09:20:33;;;;;;;5.15;2.63;;;;;;;20.74;100.00;98400.50;15290609;19;20046;-43
2023/06/10 09:26:01;;;;;;;3.25;2.20;;;;;;;21.01;100.00;98387.34;15281747;19;20371;-43
2023/06/10 09:31:26;;;;;;;3.35;2.20;;;;;;;21.19;100.00;98397.44;15277561;19;20793;-42
2023/06/10 09:37:00;;;;;;;5.38;1.85;;;;;;;21.44;100.00;98390.97;15277712;19;20018;-80
2023/06/10 09:42:25;;;;;;;4.97;2.40;;;;;;;21.64;100.00;98384.38;15290575;19;20357;-79
2023/06/10 09:47:50;;;;;;;3.80;2.13;;;;;;;21.78;100.00;98383.13;15290902;19;20433;-80
2023/06/10 09:53:27;;;;;;;5.90;2.10;;;;;;;21.95;100.00;98379.66;15293725;19;20010;-80
2023/06/10 09:58:56;;;;;;;5.32;2.13;;;;;;;22.21;100.00;98381.16;15293883;19;20010;-80
2023/06/10 10:04:21;;;;;;;4.63;1.95;;;;;;;22.37;100.00;98367.75;15293469;19;20698;-80
2023/06/10 10:09:48;;;;;;;5.60;1.92;;;;;;;22.57;100.00;98381.13;15293052;19;20468;-80
2023/06/10 10:15:15;;;;;;;2.85;1.90;;;;;;;22.71;100.00;98374.31;15287010;19;20007;-81
2023/06/10 10:20:49;;;;;;;2.40;2.03;;;;;;;22.92;100.00;98375.59;15290629;19;20010;-80
2023/06/10 10:26:20;;;;;;;6.90;1.80;;;;;;;23.17;100.00;98368.09;15292712;19;20117;-80
2023/06/10 10:31:46;;;;;;;3.72;1.88;;;;;;;23.42;100.00;98370.50;15293658;19;20018;-79
2023/06/10 10:37:18;;;;;;;4.65;1.85;;;;;;;23.71;100.00;98367.75;15293547;19;20015;-80
2023/06/10 10:42:46;;;;;;;3.38;2.10;;;;;;;23.89;100.00;98358.41;15295404;19;20010;-79
2023/06/10 10:48:17;;;;;;;5.28;2.08;;;;;;;24.08;100.00;98361.78;15292999;19;20010;-81
2023/06/10 10:53:44;;;;;;;5.80;1.90;;;;;;;24.46;100.00;98359.28;15304973;19;20043;-81
2023/06/10 10:59:19;;;;;;;7.57;2.10;;;;;;;24.56;100.00;98342.09;15363051;19;20047;-79
2023/06/10 11:04:48;;;;;;;3.72;1.92;;;;;;;24.64;100.00;98341.63;15310116;19;20085;-80
2023/06/10 11:10:19;;;;;;;5.13;1.98;;;;;;;24.84;100.00;98341.09;15284521;19;20022;-79
2023/06/10 11:15:54;;;;;;;;;;;;;;;25.11;100.00;98340.28;15287451;19;20042;-81
2023/06/10 11:21:19;;;;;;;2.97;1.90;;;;;;;25.23;100.00;98329.13;15281758;19;19910;-80
2023/06/10 11:26:53;;;;;;;4.97;1.92;;;;;;;25.35;100.00;98328.94;15281417;19;20018;-80
2023/06/10 11:32:20;;;;;;;;;;;;;;;25.63;100.00;98322.38;15289591;19;20019;-79
2023/06/10 11:37:52;;;;;;;6.57;1.88;;;;;;;25.66;100.00;98324.59;15287697;19;20341;-80
2023/06/10 11:43:16;;;;;;;;;;;;;;;25.68;100.00;98308.59;15294346;19;20591;-80
2023/06/10 11:48:44;;;;;;;2.42;1.65;;;;;;;25.90;100.00;98331.69;15291149;19;20385;-81
2023/06/10 11:54:11;;;;;;;2.60;1.95;;;;;;;25.77;100.00;98311.72;15289032;19;20010;-79
2023/06/10 11:59:40;;;;;;;2.35;1.80;;;;;;;25.78;100.00;98309.78;15287717;19;20021;-79
2023/06/10 12:05:19;;;;;;;3.03;1.70;;;;;;;26.00;100.00;98299.47;15289836;19;20101;-81
2023/06/10 12:10:49;;;;;;;2.92;1.30;;;;;;;25.99;94.60;98299.72;15285822;19;20403;-81
2023/06/10 12:16:14;;;;;;;6.00;1.20;;;;;;;25.98;90.10;98293.41;15291488;19;20006;-80
2023/06/10 12:21:43;;;;;;;3.08;1.10;;;;;;;26.37;78.86;98285.91;15296722;19;20010;-81
2023/06/10 12:27:13;;;;;;;3.75;1.10;;;;;;;26.74;70.10;98288.56;15318620;19;20011;-79
2023/06/10 12:32:45;;;;;;;1.88;0.90;;;;;;;27.03;65.64;98268.75;15332344;19;20342;-81
2023/06/10 12:38:12;;;;;;;4.50;0.95;;;;;;;27.29;63.09;98273.50;15302962;19;20039;-81
2023/06/10 12:43:37;;;;;;;3.53;1.00;;;;;;;27.66;63.27;98275.19;15299275;19;20011;-81
2023/06/10 12:49:03;;;;;;;2.08;0.88;;;;;;;27.79;56.92;98280.19;15295953;19;20488;-81
2023/06/10 12:54:33;;;;;;;9.43;1.00;;;;;;;28.02;56.30;98272.41;15296657;19;20363;-80
2023/06/10 12:59:52;;;;;;;4.93;1.00;;;;;;;28.33;55.93;98272.38;15301475;19;20097;-82
2023/06/10 13:05:17;;;;;;;4.57;0.90;;;;;;;28.56;51.84;98275.59;15316789;19;20394;-81
2023/06/10 13:10:45;;;;;;;1.92;0.90;;;;;;;28.86;53.54;98280.22;15318415;19;20007;-81
2023/06/10 13:16:10;;;;;;;1.48;0.88;;;;;;;29.13;50.51;98276.16;15317190;19;20047;-81
2023/06/10 13:21:35;;;;;;;2.60;0.85;;;;;;;29.43;51.35;98271.53;15308096;19;20030;-81
2023/06/10 13:27:02;;;;;;;2.05;0.90;;;;;;;29.72;48.94;98272.69;15305684;19;20066;-81
2023/06/10 13:32:27;;;;;;;1.38;0.60;;;;;;;29.97;49.81;98268.88;15303696;19;20019;-79
2023/06/10 13:37:51;;;;;;;2.25;1.17;;;;;;;30.16;47.57;98270.91;15303875;19;20423;-81
2023/06/10 13:43:19;;;;;;;3.13;0.88;;;;;;;30.49;48.13;98262.75;15303561;19;20014;-79
2023/06/10 13:48:43;;;;;;;1.50;0.95;;;;;;;30.98;47.93;98258.81;15296608;19;20472;-81
2023/06/10 13:54:08;;;;;;;0.88;0.70;;;;;;;30.97;47.37;98250.75;15295651;19;20058;-82
2023/06/10 13:59:36;;;;;;;3.42;0.80;;;;;;;30.64;45.19;98250.63;15292446;19;20048;-80
2023/06/10 14:05:01;;;;;;;2.05;0.88;;;;;;;30.41;46.45;98248.38;15288743;19;20101;-79
2023/06/10 14:10:33;;;;;;;5.28;0.88;;;;;;;30.51;45.11;98254.94;15274566;19;20015;-45
2023/06/10 14:16:02;;;;;;;1.45;0.80;;;;;;;30.87;45.00;98246.97;15283344;19;20036;-43
2023/06/10 14:21:28;;;;;;;1.25;0.73;;;;;;;31.35;44.57;98246.00;15286580;19;20363;-44
2023/06/10 14:26:53;;;;;;;1.65;0.77;;;;;;;31.61;42.42;98237.22;15284284;19;20021;-44
2023/06/10 14:32:20;;;;;;;4.03;0.98;;;;;;;31.27;42.90;98230.00;15284623;19;20034;-48
2023/06/10 14:37:44;;;;;;;8.70;0.90;;;;;;;30.54;43.10;98254.38;15280086;19;20033;-45
2023/06/10 14:43:10;;;;;;;4.43;1.02;;;;;;;30.64;44.20;98259.78;15285092;19;20374;-45
2023/06/10 14:48:38;;;;;;;2.53;0.75;;;;;;;30.80;44.16;98260.44;15285658;19;20669;-47
2023/06/10 14:54:03;;;;;;;4.30;0.90;;;;;;;30.72;45.46;98270.28;15285123;19;20022;-47
2023/06/10 14:59:29;;;;;;;2.50;0.90;;;;;;;30.89;44.39;98278.09;15278415;19;20016;-44
2023/06/10 15:04:56;;;;;;;2.55;0.90;;;;;;;31.14;45.20;98272.50;15277569;19;20074;-44
2023/06/10 15:10:27;;;;;;;4.07;0.93;;;;;;;30.47;44.15;98270.56;15274946;19;20472;-44
2023/06/10 15:15:52;;;;;;;2.58;0.88;;;;;;;29.66;45.87;98269.13;15282122;19;20014;-44
2023/06/10 15:21:23;;;;;;;3.53;1.00;;;;;;;29.01;47.47;98276.50;15283600;19;20014;-45
2023/06/10 15:26:47;;;;;;;1.65;1.00;;;;;;;28.40;48.53;98272.06;15280169;19;20486;-46
2023/06/10 15:32:13;;;;;;;4.22;0.98;;;;;;;27.97;49.98;98270.47;15281733;19;20010;-45
2023/06/10 15:37:40;;;;;;;1.95;1.00;;;;;;;27.50;51.25;98278.00;15273205;19;20029;-48
2023/06/10 15:43:05;;;;;;;1.73;1.00;;;;;;;27.24;52.12;98274.31;15274826;19;20014;-46
2023/06/10 15:48:30;;;;;;;2.30;1.02;;;;;;;26.97;53.12;98272.63;15279140;19;20042;-45
2023/06/10 15:53:57;;;;;;;3.05;1.02;;;;;;;26.75;53.59;98270.03;15279638;19;20094;-44
2023/06/10 15:59:22;;;;;;;2.75;0.95;;;;;;;26.58;54.71;98267.50;15275654;19;20031;-45
2023/06/10 16:04:46;;;;;;;3.08;1.00;;;;;;;26.25;55.17;98264.03;15275250;19;20543;-46
2023/06/10 16:10:21;;;;;;;4.22;0.95;;;;;;;25.96;nan;98267.97;15265007;19;20031;-47
2023/06/10 16:15:47;;;;;;;1.90;1.10;;;;;;;25.84;59.13;98267.34;15266628;19;20097;-46
2023/06/10 16:21:13;;;;;;;1.40;0.90;;;;;;;26.01;59.95;98269.94;15272706;19;20514;-46
2023/06/10 16:26:33;;;;;;;2.42;0.90;;;;;;;26.48;59.99;98268.28;15270084;19;20767;-46
2023/06/10 16:31:58;;;;;;;1.50;0.95;;;;;;;27.06;58.43;98268.22;15276425;19;20011;-48
2023/06/10 16:37:23;;;;;;;1.63;1.00;;;;;;;27.56;55.56;98261.38;15283710;19;20007;-46
2023/06/10 16:42:50;;;;;;;2.65;0.90;;;;;;;27.71;53.87;98274.38;15284063;19;20017;-46
2023/06/10 16:48:15;;;;;;;2.50;0.80;;;;;;;27.85;55.66;98272.69;15286085;19;20673;-46
2023/06/10 16:53:39;;;;;;;2.45;0.85;;;;;;;27.21;58.29;98286.78;15291189;19;20600;-47
2023/06/10 16:59:08;;;;;;;2.63;1.00;;;;;;;26.99;55.86;98284.22;15288118;19;20022;-49
2023/06/10 17:04:34;;;;;;;3.08;1.20;;;;;;;26.73;57.63;98281.38;15286918;19;20018;-48
2023/06/10 17:09:58;;;;;;;1.90;1.38;;;;;;;26.64;59.77;98307.03;15286560;19;20022;-47
2023/06/10 17:15:25;;;;;;;1.70;1.02;;;;;;;26.50;61.52;98301.16;15283664;19;20117;-47
2023/06/10 17:20:50;;;;;;;2.58;1.30;;;;;;;26.14;64.27;98312.81;15287481;19;20018;-46
2023/06/10 17:26:15;;;;;;;4.10;1.27;;;;;;;25.98;66.86;98314.63;15287482;19;20021;-47
2023/06/10 17:31:42;;;;;;;1.45;1.10;;;;;;;26.04;67.76;98312.75;15281342;19;20029;-46
2023/06/10 17:37:07;;;;;;;3.42;1.23;;;;;;;26.01;69.23;98314.09;15289041;19;20019;-48
2023/06/10 17:42:31;;;;;;;1.70;1.00;;;;;;;25.68;71.81;98322.41;15286780;19;20894;-47
2023/06/10 17:47:58;;;;;;;1.50;1.10;;;;;;;25.26;77.55;98319.50;15282937;19;20019;-47
2023/06/10 17:53:23;;;;;;;1.45;1.10;;;;;;;24.99;80.64;98325.84;15283592;19;20021;-47
2023/06/10 17:58:49;;;;;;;1.58;1.30;;;;;;;24.71;88.26;98319.44;15284189;19;20360;-47
2023/06/10 18:04:16;;;;;;;1.38;1.20;;;;;;;24.55;89.90;98327.47;15287881;19;20406;-46
2023/06/10 18:09:41;;;;;;;1.60;1.20;;;;;;;24.70;92.36;98323.28;15283477;19;20019;-46
2023/06/10 18:15:05;;;;;;;2.13;1.27;;;;;;;24.88;92.07;98330.38;15283087;19;20010;-46
2023/06/10 18:20:33;;;;;;;2.17;1.40;;;;;;;24.93;96.27;98325.78;15273101;19;20021;-48
2023/06/10 18:25:58;;;;;;;1.50;1.10;;;;;;;24.83;96.56;98327.56;15278230;19;20017;-47
2023/06/10 18:31:24;;;;;;;3.15;1.40;;;;;;;24.72;100.00;98326.63;15284939;19;20007;-48
2023/06/10 18:36:51;;;;;;;2.22;1.20;;;;;;;24.45;100.00;98321.81;15282125;19;20015;-46
2023/06/10 18:42:17;;;;;;;4.10;1.50;;;;;;;23.96;100.00;98333.50;15283353;19;20008;-46
2023/06/10 18:47:41;;;;;;;4.05;1.50;;;;;;;23.39;100.00;98338.84;15282454;19;20013;-47
2023/06/10 18:53:18;;;;;;;2.20;1.50;;;;;;;22.92;100.00;98336.28;14767032;19;10000707;-47
2023/06/10 18:58:46;;;;;;;5.38;1.70;;;;;;;22.62;100.00;98340.09;15245443;19;20014;-47
2023/06/10 19:04:11;;;;;;;3.20;1.60;;;;;;;22.29;100.00;98363.47;15279476;19;20046;-46
2023/06/10 19:09:45;;;;;;;3.65;1.80;;;;;;;22.02;100.00;98352.97;15272598;19;20045;-46
2023/06/10 19:15:11;;;;;;;2.78;1.70;;;;;;;21.89;100.00;98369.66;15270008;19;20504;-46
2023/06/10 19:20:37;;;;;;;4.68;1.80;;;;;;;21.80;100.00;98372.75;15275268;19;20041;-44
2023/06/10 19:26:05;;;;;;;2.75;1.73;;;;;;;21.78;100.00;98380.38;15266915;19;20021;-44
2023/06/10 19:31:31;;;;;;;3.85;1.70;;;;;;;21.76;100.00;98388.00;15271419;19;20014;-42
2023/06/10 19:36:56;;;;;;;1.83;1.42;;;;;;;21.76;100.00;98403.59;15276268;19;20477;-44
2023/06/10 19:42:23;;;;;;;4.88;1.80;;;;;;;21.70;100.00;98422.69;15277503;19;20018;-42
2023/06/10 19:47:48;;;;;;;1.73;1.52;;;;;;;21.64;100.00;98433.75;15277926;19;21069;-45
2023/06/10 19:53:12;;;;;;;4.50;1.88;;;;;;;21.57;100.00;98436.53;15277395;19;20497;-42
2023/06/10 19:58:39;;;;;;;2.63;1.70;;;;;;;21.46;100.00;98445.56;15271037;19;20360;-46
2023/06/10 20:04:04;;;;;;;4.15;1.85;;;;;;;21.23;100.00;98447.94;15272653;19;20035;-43
2023/06/10 20:09:35;;;;;;;6.30;1.73;;;;;;;20.96;100.00;98439.22;15267663;19;20020;-42
2023/06/10 20:15:09;;;;;;;4.47;2.05;;;;;;;20.79;100.00;98438.97;15268751;19;20035;-43
2023/06/10 20:20:35;;;;;;;4.35;1.83;;;;;;;20.71;100.00;98436.53;15272067;19;20011;-43
2023/06/10 20:25:59;;;;;;;3.17;1.95;;;;;;;20.69;100.00;98438.66;15278587;19;20399;-43
2023/06/10 20:31:27;;;;;;;4.82;1.80;;;;;;;20.64;100.00;98444.81;15271604;19;20014;-46
2023/06/10 20:36:52;;;;;;;3.35;1.70;;;;;;;20.55;100.00;98438.78;15272932;19;20011;-44
2023/06/10 20:42:17;;;;;;;2.78;1.70;;;;;;;20.45;100.00;98441.19;15278414;19;20050;-50
2023/06/10 20:47:44;;;;;;;3.08;2.10;;;;;;;20.30;100.00;98447.03;15281469;19;20077;-45
2023/06/10 20:53:02;;;;;;;3.75;2.13;;;;;;;20.16;100.00;98446.31;15277298;19;20037;-44
2023/06/10 20:58:27;;;;;;;5.10;1.98;;;;;;;20.07;100.00;98453.09;15275795;19;20475;-44
2023/06/10 21:03:54;;;;;;;2.20;1.65;;;;;;;20.01;100.00;98447.47;15269335;19;20028;-45
2023/06/10 21:09:19;;;;;;;3.28;1.85;;;;;;;20.02;100.00;98434.63;15273078;19;20015;-45
2023/06/10 21:14:43;;;;;;;3.90;1.85;;;;;;;19.98;100.00;98434.22;15274475;19;20439;-43
2023/06/10 21:20:12;;;;;;;5.35;1.60;;;;;;;19.98;100.00;98434.22;15274602;19;20029;-48
2023/06/10 21:25:36;;;;;;;2.90;1.70;;;;;;;19.93;100.00;98439.53;15288852;19;20022;-44
2023/06/10 21:31:02;;;;;;;3.53;1.98;;;;;;;19.75;100.00;98444.88;15291844;19;20011;-45
2023/06/10 21:36:29;;;;;;;4.82;1.83;;;;;;;19.59;100.00;98452.53;15284971;19;20463;-43
2023/06/10 21:41:54;;;;;;;3.03;1.98;;;;;;;19.35;100.00;98454.16;15284058;19;20088;-44
2023/06/10 21:47:18;;;;;;;2.45;1.75;;;;;;;19.23;100.00;98462.19;15292514;19;20031;-43
2023/06/10 21:52:45;;;;;;;3.28;2.10;;;;;;;19.16;100.00;98450.44;15290505;19;20078;-45
2023/06/10 21:58:10;;;;;;;1.77;1.63;;;;;;;19.06;100.00;98454.47;15288239;19;20018;-44
2023/06/10 22:03:35;;;;;;;5.80;2.15;;;;;;;18.93;100.00;98454.50;15287946;19;20011;-42
2023/06/10 22:09:02;;;;;;;5.25;2.20;;;;;;;18.81;100.00;98464.41;15282755;19;20002;-44
2023/06/10 22:14:27;;;;;;;3.42;2.20;;;;;;;18.68;100.00;98468.81;15288361;19;20023;-45
2023/06/10 22:19:51;;;;;;;3.03;1.90;;;;;;;18.55;100.00;98468.84;15287946;19;20014;-44
2023/06/10 22:25:18;;;;;;;5.30;2.15;;;;;;;18.45;100.00;98461.94;15286496;19;20828;-44
2023/06/10 22:30:43;;;;;;;2.75;2.08;;;;;;;18.36;100.00;98465.09;15284453;19;20014;-43
2023/06/10 22:36:08;;;;;;;3.65;2.10;;;;;;;18.28;100.00;98463.44;15279707;19;20419;-43
2023/06/10 22:41:35;;;;;;;5.10;2.05;;;;;;;18.20;100.00;98461.75;15278960;19;20319;-42
2023/06/10 22:47:01;;;;;;;6.25;2.30;;;;;;;18.08;100.00;98466.97;15283402;19;20011;-44
2023/06/10 22:52:25;;;;;;;2.28;2.03;;;;;;;17.90;100.00;98469.47;15284508;19;20014;-43
2023/06/10 22:57:52;;;;;;;5.65;2.50;;;;;;;17.75;100.00;98465.03;15285067;19;20567;-41
2023/06/10 23:03:17;;;;;;;3.08;2.13;;;;;;;17.65;100.00;98472.78;15283906;19;20027;-44
2023/06/10 23:08:43;;;;;;;2.53;2.13;;;;;;;17.58;100.00;98463.75;15277751;19;20038;-48
2023/06/10 23:14:11;;;;;;;4.95;2.50;;;;;;;17.49;100.00;98469.38;15280176;19;20022;-42
2023/06/10 23:19:40;;;;;;;3.35;2.20;;;;;;;17.41;100.00;98470.38;15282956;19;20494;-41
2023/06/10 23:25:04;;;;;;;3.00;2.22;;;;;;;17.28;100.00;98469.50;15281394;19;20454;-41
2023/06/10 23:30:31;;;;;;;3.45;2.15;;;;;;;17.19;100.00;98472.41;15281689;19;20014;-41
2023/06/10 23:35:56;;;;;;;2.88;2.00;;;;;;;17.14;100.00;98480.34;15279633;19;20102;-42
2023/06/10 23:41:21;;;;;;;2.90;2.30;;;;;;;17.05;100.00;98478.84;15271674;19;20010;-42
2023/06/10 23:46:48;;;;;;;2.95;2.38;;;;;;;16.96;100.00;98482.78;15275540;19;20011;-41
2023/06/10 23:52:13;;;;;;;2.95;2.50;;;;;;;16.86;100.00;98483.94;15259228;19;20014;-41
2023/06/10 23:57:37;;;;;;;3.22;2.53;;;;;;;16.75;100.00;98488.06;15279243;19;20018;-42
